Kitaakita Odate Noshiro Airport

About
Name: Kitaakita Odate Noshiro Airport
Identifier:  ONJ/RJSR
Serves:  Kitaakita , Ōdate , Noshiro , Kazuno
Operator:  Odate–Noshiro Airport Administration
Public/Private:  Public
Local Time:  21. Sep 17:45 JST
Description: Odate–Noshiro Airport is an airport in Kitaakita, Akita, Japan and is 8.3 NM west of Ōdate at 276 ft above sea level. It is also informally known as Akita North Airport.
Source: Wikipedia
Location
Kitaakita
  Japan

Runways
Identifier Length (m/ft) Surface
11/29 2,000/6,562 Asphalt concrete
Statistics
Flights per Day:
3 flights
Distance: 518km (322mi)
Flights delayed:
95% (0 flights per day delayed)
Delay Average: 33 minutes
Current Weather
  0kt from variable
  9km (6 mi.)
 METAR RJSR 210800Z VRB01KT 9999 FEW040 BKN/// 18/14 Q1021

Current Flights

Arrivals
Number Arrival From Airline
Landed NH789 17:25  Tokyo  All Nippon Airways

Current Delays

Departures
N/A
Arrivals
N/A

Destinations

Top Destinations
Airport Flights
per week
Seats
per week
  Tokyo (HND) 26 2,761 3 394

Airlines & Planes

Top Airlines
Airline Flights
per Day
Seats
per Day
  All Nippon Airways 3 394
Top Plane Types
Model Flights Seats
Airbus A321 1.5/day 161/day 161.66666666666666
Boeing B737-800 1.3/day 221/day 221.73333333333332
Airbus A321 Neo 0.9/day - 0
Airbus A320 0.1/day 11/day 11.066666666666666